Ozone, Tennessee
Current Conditions -  °F | °C
As of 9:53 AM on Saturday 20 Dec 2014 (Local Time) from KCSV Reporting Station
Overcast Overcast  
Wind Chill:   Ceiling: 4000
Heat Index:   Visibility: 9mi
Dew Point: -1°   Wind: 0mph
Humidity: 70%   Direction: NA
Pressure: 30.21"   Gusts: NA
Location:  35.88°N, 84.81°W
Report Text: KCSV 201553Z AUTO 00000KT 9SM OVC040 04/M01 A3021 RMK AO2 SLP239 T00391011
Loading
Personal Weather Stations






























Interactive Weather Map New forecast layout! Learn more

10-Day Weather Forecast

Advertisements
Track Severe Weather on mobile